createdAt,value
2017-09-20T00:00:12.657Z,35.60
2017-09-20T00:02:40.353Z,33.83
2017-09-20T00:05:08.021Z,34.60
2017-09-20T00:07:35.707Z,32.55
2017-09-20T00:10:04.092Z,31.52
2017-09-20T00:12:31.691Z,30.85
2017-09-20T00:14:59.324Z,31.85
2017-09-20T00:17:27.682Z,32.05
2017-09-20T00:19:55.306Z,29.55
2017-09-20T00:22:22.939Z,32.15
2017-09-20T00:24:51.253Z,30.83
2017-09-20T00:27:18.885Z,34.78
2017-09-20T00:29:46.490Z,33.78
2017-09-20T00:32:14.197Z,31.30
2017-09-20T00:34:41.820Z,31.40
2017-09-20T00:37:09.408Z,33.90
2017-09-20T00:39:37.867Z,32.25
2017-09-20T00:42:05.473Z,31.90
2017-09-20T00:44:33.089Z,32.85
2017-09-20T00:47:00.673Z,33.95
2017-09-20T00:49:28.313Z,32.15
2017-09-20T00:51:56.025Z,31.27
2017-09-20T00:54:23.608Z,33.20
2017-09-20T00:56:51.270Z,34.63
2017-09-20T00:59:18.865Z,33.60
2017-09-20T01:01:46.573Z,31.50
2017-09-20T01:04:14.201Z,33.63
2017-09-20T01:06:42.603Z,30.58
2017-09-20T01:09:10.236Z,33.85
2017-09-20T01:11:37.835Z,32.75
2017-09-20T01:14:05.530Z,31.77
2017-09-20T01:16:33.198Z,35.67
2017-09-20T01:19:00.826Z,31.42
2017-09-20T01:21:40.354Z,33.30
2017-09-20T01:24:08.876Z,32.75
2017-09-20T01:26:36.651Z,34.55
2017-09-20T01:29:04.284Z,35.50
2017-09-20T01:31:31.935Z,34.63
2017-09-20T01:33:59.572Z,35.72
2017-09-20T01:36:27.180Z,34.80
2017-09-20T01:38:54.853Z,35.40
2017-09-20T01:41:22.526Z,34.88
2017-09-20T01:43:50.945Z,36.00
2017-09-20T01:46:18.553Z,35.35
2017-09-20T01:48:46.203Z,35.58
2017-09-20T01:51:13.881Z,32.90
2017-09-20T01:53:41.448Z,35.47
2017-09-20T01:56:09.116Z,35.55
2017-09-20T01:58:36.781Z,34.88
2017-09-20T02:01:05.129Z,33.42
2017-09-20T02:03:32.811Z,35.42
2017-09-20T02:06:00.438Z,34.20
2017-09-20T02:08:28.064Z,36.45
2017-09-20T02:10:55.665Z,35.83
2017-09-20T02:13:23.279Z,34.50
2017-09-20T02:15:51.725Z,34.55
2017-09-20T02:18:19.337Z,34.15
2017-09-20T02:20:47.591Z,36.63
2017-09-20T02:23:15.953Z,35.55
2017-09-20T02:25:43.577Z,36.70
2017-09-20T02:28:11.178Z,34.30
2017-09-20T02:30:38.784Z,35.55
2017-09-20T02:33:06.508Z,33.72
2017-09-20T02:35:34.229Z,35.83
2017-09-20T02:38:01.855Z,34.15
2017-09-20T02:40:29.490Z,34.13
2017-09-20T02:42:57.148Z,33.30
2017-09-20T02:45:24.753Z,34.33
2017-09-20T02:47:52.385Z,33.55
2017-09-20T02:50:20.738Z,31.48
2017-09-20T02:52:49.127Z,32.15
2017-09-20T02:55:16.725Z,31.30
2017-09-20T02:57:44.385Z,31.60
2017-09-20T03:00:12.024Z,32.60
2017-09-20T03:02:40.994Z,30.85
2017-09-20T03:05:08.667Z,33.25
2017-09-20T03:07:36.256Z,32.50
2017-09-20T03:10:03.892Z,30.23
2017-09-20T03:12:31.794Z,29.70
2017-09-20T03:14:59.416Z,30.48
2017-09-20T03:17:27.016Z,30.00
2017-09-20T03:19:54.613Z,29.25
2017-09-20T03:22:22.249Z,31.70
2017-09-20T03:24:49.895Z,30.02
2017-09-20T03:27:17.689Z,31.00
2017-09-20T03:29:45.297Z,26.90
2017-09-20T03:32:14.292Z,25.02
2017-09-20T03:34:42.685Z,28.48
2017-09-20T03:37:10.328Z,27.92
2017-09-20T03:39:37.978Z,28.90
2017-09-20T03:42:05.642Z,25.58
2017-09-20T03:44:33.238Z,27.35
2017-09-20T03:47:00.880Z,24.05
2017-09-20T03:49:29.325Z,26.45
2017-09-20T03:51:56.922Z,25.95
2017-09-20T03:54:25.396Z,25.90
2017-09-20T03:56:53.766Z,24.42
2017-09-20T03:59:21.428Z,24.65
2017-09-20T04:01:49.029Z,24.67
2017-09-20T04:04:16.831Z,24.80
2017-09-20T04:06:44.456Z,23.65
2017-09-20T04:09:12.078Z,25.20
2017-09-20T04:11:40.243Z,22.60
2017-09-20T04:14:07.843Z,21.20
2017-09-20T04:16:35.433Z,22.02
2017-09-20T04:19:03.639Z,21.55
2017-09-20T04:21:31.317Z,22.20
2017-09-20T04:23:59.760Z,20.80
2017-09-20T04:26:27.479Z,23.83
2017-09-20T04:28:55.115Z,22.10
2017-09-20T04:31:22.833Z,21.58
2017-09-20T04:33:50.468Z,20.17
2017-09-20T04:36:18.186Z,21.62
2017-09-20T04:38:45.831Z,21.35
2017-09-20T04:41:14.233Z,21.80
2017-09-20T04:43:41.922Z,23.27
2017-09-20T04:46:10.148Z,21.55
2017-09-20T04:48:37.782Z,24.77
2017-09-20T04:51:05.485Z,22.40
2017-09-20T04:53:33.116Z,23.38
2017-09-20T04:56:00.818Z,22.65
2017-09-20T04:58:29.276Z,23.92
2017-09-20T05:00:56.966Z,21.30
2017-09-20T05:03:24.666Z,22.75
2017-09-20T05:05:52.449Z,23.80
2017-09-20T05:08:20.166Z,21.90
2017-09-20T05:10:48.453Z,21.05
2017-09-20T05:13:16.141Z,24.23
2017-09-20T05:15:43.794Z,21.60
2017-09-20T05:18:11.432Z,22.05
2017-09-20T05:20:39.148Z,22.52
2017-09-20T05:23:08.457Z,22.35
2017-09-20T05:25:36.122Z,19.62
2017-09-20T05:28:03.802Z,21.05
2017-09-20T05:30:31.441Z,22.83
2017-09-20T05:32:59.406Z,23.33
2017-09-20T05:35:26.985Z,21.27
2017-09-20T05:37:54.733Z,27.52
2017-09-20T05:40:22.318Z,19.87
2017-09-20T05:42:49.930Z,20.45
2017-09-20T05:45:17.587Z,23.05
2017-09-20T05:47:45.233Z,19.08
2017-09-20T05:50:13.618Z,22.15
2017-09-20T05:52:41.255Z,21.67
2017-09-20T05:55:09.683Z,19.98
2017-09-20T05:57:37.319Z,21.70
2017-09-20T06:00:04.910Z,22.77
2017-09-20T06:02:32.551Z,21.33
2017-09-20T06:05:00.141Z,19.87
2017-09-20T06:07:27.803Z,21.90
2017-09-20T06:09:55.464Z,21.75
2017-09-20T06:12:23.073Z,23.27
2017-09-20T06:14:50.741Z,20.23
2017-09-20T06:17:18.358Z,21.77
2017-09-20T06:19:46.773Z,22.05
2017-09-20T06:22:14.402Z,19.40
2017-09-20T06:24:42.031Z,22.70
2017-09-20T06:27:09.711Z,21.98
2017-09-20T06:29:37.282Z,23.30
2017-09-20T06:32:04.965Z,21.98
2017-09-20T06:34:32.648Z,22.70
2017-09-20T06:37:00.267Z,22.05
2017-09-20T06:39:27.916Z,24.17
2017-09-20T06:41:55.535Z,21.20
2017-09-20T06:44:23.959Z,23.05
2017-09-20T06:46:51.629Z,23.98
2017-09-20T06:49:19.316Z,20.88
2017-09-20T06:51:46.953Z,19.58
2017-09-20T06:54:15.365Z,19.55
2017-09-20T06:56:42.973Z,21.15
2017-09-20T06:59:10.580Z,19.12
2017-09-20T07:01:38.182Z,21.25
2017-09-20T07:04:05.868Z,20.05
2017-09-20T07:06:33.506Z,20.27
2017-09-20T07:09:01.535Z,18.02
2017-09-20T07:11:29.161Z,19.23
2017-09-20T07:13:57.314Z,19.40
2017-09-20T07:16:24.932Z,22.50
2017-09-20T07:18:53.866Z,18.95
2017-09-20T07:21:21.532Z,18.17
2017-09-20T07:23:49.134Z,20.67
2017-09-20T07:26:16.813Z,18.48
2017-09-20T07:28:44.453Z,18.83
2017-09-20T07:31:12.047Z,18.37
2017-09-20T07:33:40.401Z,18.40
2017-09-20T07:36:08.040Z,18.60
2017-09-20T07:38:35.615Z,18.77
2017-09-20T07:41:03.322Z,18.20
2017-09-20T07:43:32.346Z,18.98
2017-09-20T07:45:59.957Z,18.02
2017-09-20T07:48:28.504Z,18.17
2017-09-20T07:50:56.140Z,17.98
2017-09-20T07:53:23.798Z,18.62
2017-09-20T07:55:51.497Z,19.40
2017-09-20T07:58:19.077Z,18.17
2017-09-20T08:00:46.862Z,18.50
2017-09-20T08:03:14.494Z,18.87
2017-09-20T08:05:42.152Z,20.20
2017-09-20T08:08:09.767Z,22.45
2017-09-20T08:10:37.392Z,20.10
2017-09-20T08:13:05.827Z,20.30
2017-09-20T08:15:33.487Z,20.53
2017-09-20T08:18:01.151Z,17.35
2017-09-20T08:20:28.750Z,18.00
2017-09-20T08:22:56.433Z,18.30
2017-09-20T08:25:24.098Z,16.83
2017-09-20T08:27:51.696Z,15.13
2017-09-20T08:30:19.354Z,16.03
2017-09-20T08:32:47.762Z,15.13
2017-09-20T08:35:16.042Z,16.15
2017-09-20T08:37:44.445Z,16.48
2017-09-20T08:40:12.072Z,21.83
2017-09-20T08:42:39.747Z,18.43
2017-09-20T08:45:07.389Z,26.67
2017-09-20T08:47:35.032Z,26.00
2017-09-20T08:50:02.683Z,21.97
2017-09-20T08:52:30.418Z,20.98
2017-09-20T08:54:58.062Z,26.60
2017-09-20T08:57:25.702Z,21.97
2017-09-20T08:59:53.341Z,23.93
2017-09-20T09:02:20.945Z,24.77
2017-09-20T09:04:48.648Z,26.50
2017-09-20T09:07:16.271Z,31.10
2017-09-20T09:09:44.650Z,24.27
2017-09-20T09:12:12.279Z,22.43
2017-09-20T09:14:40.820Z,22.20
2017-09-20T09:17:08.426Z,32.23
2017-09-20T09:19:36.075Z,32.40
2017-09-20T09:22:03.738Z,35.73
2017-09-20T09:24:31.409Z,21.60
2017-09-20T09:26:59.055Z,23.00
2017-09-20T09:29:26.730Z,22.90
2017-09-20T09:31:54.406Z,35.63
2017-09-20T09:34:22.048Z,22.83
2017-09-20T09:36:50.328Z,26.30
2017-09-20T09:39:18.038Z,24.00
2017-09-20T09:41:45.642Z,22.67
2017-09-20T09:44:13.292Z,25.20
2017-09-20T09:46:40.897Z,26.13
2017-09-20T09:49:09.316Z,24.57
2017-09-20T09:51:37.708Z,27.13
2017-09-20T09:54:05.624Z,29.77
2017-09-20T09:56:33.231Z,26.50
2017-09-20T09:59:00.845Z,23.17
2017-09-20T10:01:29.343Z,25.30
2017-09-20T10:03:57.175Z,26.83
2017-09-20T10:06:24.786Z,24.90
2017-09-20T10:08:52.407Z,22.80
2017-09-20T10:11:20.010Z,25.10
2017-09-20T10:13:47.639Z,22.63
2017-09-20T10:16:15.367Z,23.87
2017-09-20T10:18:43.065Z,25.70
2017-09-20T10:21:10.825Z,24.33
2017-09-20T10:23:38.974Z,27.90
2017-09-20T10:26:07.172Z,24.93
2017-09-20T10:28:34.811Z,25.87
2017-09-20T10:31:02.429Z,22.10
2017-09-20T10:33:30.048Z,22.40
2017-09-20T10:35:57.666Z,24.17
2017-09-20T10:38:25.287Z,26.70
2017-09-20T10:40:53.703Z,22.50
2017-09-20T10:43:21.313Z,22.57
2017-09-20T10:45:48.963Z,22.27
2017-09-20T10:48:16.624Z,20.67
2017-09-20T10:50:44.273Z,23.43
2017-09-20T10:53:11.922Z,21.33
2017-09-20T10:55:39.555Z,21.40
2017-09-20T10:58:07.364Z,23.53
2017-09-20T11:00:34.975Z,21.07
2017-09-20T11:03:02.618Z,20.47
2017-09-20T11:05:30.212Z,20.87
2017-09-20T11:07:58.726Z,22.93
2017-09-20T11:10:26.352Z,19.80
2017-09-20T11:12:53.954Z,20.60
2017-09-20T11:15:21.568Z,21.60
2017-09-20T11:17:50.302Z,20.60
2017-09-20T11:20:17.965Z,20.77
2017-09-20T11:22:45.616Z,21.00
2017-09-20T11:25:13.268Z,18.33
2017-09-20T11:27:40.888Z,21.53
2017-09-20T11:30:09.266Z,21.20
2017-09-20T11:32:37.684Z,20.13
2017-09-20T11:35:05.319Z,20.70
2017-09-20T11:37:32.951Z,16.73
2017-09-20T11:40:00.573Z,16.33
2017-09-20T11:42:28.186Z,16.63
2017-09-20T11:44:55.812Z,15.77
2017-09-20T11:47:23.441Z,14.37
2017-09-20T11:49:51.156Z,14.50
2017-09-20T11:52:19.101Z,14.77
2017-09-20T11:54:46.867Z,16.27
2017-09-20T11:57:14.478Z,14.67
2017-09-20T11:59:42.152Z,15.83
2017-09-20T12:02:09.781Z,15.77
2017-09-20T12:04:37.413Z,13.90
2017-09-20T12:07:05.029Z,13.37
2017-09-20T12:09:33.613Z,15.10
2017-09-20T12:12:01.248Z,14.30
2017-09-20T12:14:28.951Z,13.03
2017-09-20T12:16:56.618Z,12.70
2017-09-20T12:19:24.204Z,12.10
2017-09-20T12:21:51.792Z,12.00
2017-09-20T12:24:19.534Z,13.53
2017-09-20T12:29:21.405Z,12.60
2017-09-20T12:31:49.009Z,12.73
2017-09-20T12:34:17.386Z,11.90
2017-09-20T12:36:45.747Z,16.57
2017-09-20T12:39:13.388Z,18.50
2017-09-20T12:41:41.075Z,19.43
2017-09-20T12:44:09.427Z,19.90
2017-09-20T12:46:37.062Z,21.80
2017-09-20T12:49:04.717Z,21.13
2017-09-20T12:51:32.413Z,20.13
2017-09-20T12:54:00.227Z,19.23
2017-09-20T12:56:28.636Z,20.40
2017-09-20T12:58:56.258Z,21.00
2017-09-20T13:01:23.874Z,21.40
2017-09-20T13:03:51.835Z,21.07
2017-09-20T13:06:19.467Z,20.30
2017-09-20T13:08:49.017Z,20.63
2017-09-20T13:11:17.517Z,20.07
2017-09-20T13:13:45.374Z,19.07
2017-09-20T13:16:13.160Z,19.03
2017-09-20T13:18:41.730Z,18.87
2017-09-20T13:21:09.439Z,18.67
2017-09-20T13:23:37.068Z,20.03
2017-09-20T13:26:04.798Z,17.10
2017-09-20T13:28:32.462Z,17.27
2017-09-20T13:31:00.203Z,18.90
2017-09-20T13:33:27.827Z,19.90
2017-09-20T13:35:55.473Z,18.07
2017-09-20T13:38:23.122Z,18.17
2017-09-20T13:40:50.743Z,17.33
2017-09-20T13:43:18.629Z,19.73
2017-09-20T13:45:47.011Z,18.57
2017-09-20T13:48:14.609Z,19.00
2017-09-20T13:50:42.605Z,17.23
2017-09-20T13:53:11.050Z,19.60
2017-09-20T13:55:38.681Z,18.97
2017-09-20T13:58:06.437Z,20.40
2017-09-20T14:00:33.997Z,19.77
2017-09-20T14:03:01.580Z,18.87
2017-09-20T14:05:29.168Z,17.57
2017-09-20T14:07:56.804Z,19.20
2017-09-20T14:10:25.285Z,20.50
2017-09-20T14:12:52.888Z,18.40
2017-09-20T14:15:21.299Z,19.00
2017-09-20T14:17:48.899Z,19.73
2017-09-20T14:20:16.565Z,18.57
2017-09-20T14:22:44.212Z,20.13
2017-09-20T14:25:12.618Z,21.00
2017-09-20T14:27:41.046Z,21.23
2017-09-20T14:30:08.627Z,19.40
2017-09-20T14:32:36.264Z,18.53
2017-09-20T14:35:03.880Z,20.87
2017-09-20T14:37:32.297Z,19.73
2017-09-20T14:39:59.973Z,18.20
2017-09-20T14:42:27.793Z,17.00
2017-09-20T14:44:55.421Z,19.90
2017-09-20T14:47:23.035Z,16.57
2017-09-20T14:49:50.648Z,15.93
2017-09-20T14:52:19.068Z,15.97
2017-09-20T14:54:46.770Z,15.83
2017-09-20T14:57:14.444Z,16.60
2017-09-20T14:59:42.030Z,20.53
2017-09-20T15:02:09.653Z,15.03
2017-09-20T15:04:37.292Z,16.30
2017-09-20T15:07:04.917Z,16.23
2017-09-20T15:09:32.618Z,15.97
2017-09-20T15:12:00.268Z,14.80
2017-09-20T15:14:27.929Z,14.67
2017-09-20T15:16:55.597Z,15.33
2017-09-20T15:19:23.251Z,15.03
2017-09-20T15:21:50.842Z,16.03
2017-09-20T15:24:18.480Z,15.90
2017-09-20T15:26:46.165Z,16.23
2017-09-20T15:29:13.788Z,17.20
2017-09-20T15:31:42.159Z,15.50
2017-09-20T15:34:10.596Z,15.50
2017-09-20T15:36:38.202Z,15.40
2017-09-20T15:39:06.557Z,16.57
2017-09-20T15:41:34.162Z,15.10
2017-09-20T15:44:01.788Z,14.03
2017-09-20T15:46:30.175Z,15.70
2017-09-20T15:48:58.592Z,14.70
2017-09-20T15:51:26.293Z,16.03
2017-09-20T15:53:53.979Z,14.03
2017-09-20T15:56:22.406Z,15.33
2017-09-20T15:58:50.039Z,16.67
2017-09-20T16:01:17.633Z,18.00
2017-09-20T16:03:46.180Z,15.63
2017-09-20T16:06:13.878Z,17.13
2017-09-20T16:08:42.441Z,16.83
2017-09-20T16:11:10.052Z,16.30
2017-09-20T16:13:37.679Z,16.47
2017-09-20T16:16:05.283Z,15.97
2017-09-20T16:18:32.953Z,19.10
2017-09-20T16:21:00.870Z,19.20
2017-09-20T16:23:28.483Z,18.17
2017-09-20T16:25:56.087Z,19.27
2017-09-20T16:28:23.710Z,18.23
2017-09-20T16:30:51.389Z,20.07
2017-09-20T16:33:19.025Z,19.70
2017-09-20T16:35:46.649Z,38.90
2017-09-20T16:38:14.399Z,18.50
2017-09-20T16:40:41.980Z,20.40
2017-09-20T16:43:09.668Z,19.80
2017-09-20T16:45:37.330Z,21.07
2017-09-20T16:48:06.692Z,18.27
2017-09-20T16:50:34.564Z,20.67
2017-09-20T16:53:02.193Z,21.70
2017-09-20T16:55:29.802Z,19.00
2017-09-20T16:57:57.432Z,19.37
2017-09-20T17:00:25.079Z,20.10
2017-09-20T17:02:53.456Z,22.70
2017-09-20T17:05:21.100Z,24.90
2017-09-20T17:07:48.758Z,21.33
2017-09-20T17:10:16.338Z,22.30
2017-09-20T17:12:44.072Z,28.90
2017-09-20T17:15:11.711Z,24.30
2017-09-20T17:17:39.314Z,21.37
2017-09-20T17:20:06.908Z,31.97
2017-09-20T17:22:34.580Z,20.30
2017-09-20T17:25:02.310Z,17.93
2017-09-20T17:27:29.909Z,20.50
2017-09-20T17:29:57.507Z,23.80
2017-09-20T17:32:25.178Z,30.70
2017-09-20T17:34:52.849Z,22.20
2017-09-20T17:37:20.453Z,20.90
2017-09-20T17:39:48.289Z,20.23
2017-09-20T17:42:15.919Z,21.53
2017-09-20T17:44:43.683Z,19.50
2017-09-20T17:47:11.285Z,38.17
2017-09-20T17:49:38.926Z,20.73
2017-09-20T17:52:07.341Z,20.00
2017-09-20T17:57:08.858Z,19.93
2017-09-20T17:59:37.272Z,20.53
2017-09-20T18:02:04.896Z,20.87
2017-09-20T18:04:33.264Z,20.07
2017-09-20T18:07:00.920Z,23.30
2017-09-20T18:09:28.530Z,18.60
2017-09-20T18:11:56.143Z,21.70
2017-09-20T18:14:23.805Z,20.03
2017-09-20T18:16:51.616Z,20.30
2017-09-20T18:19:19.233Z,20.20
2017-09-20T18:21:46.902Z,17.97
2017-09-20T18:24:14.586Z,19.67
2017-09-20T18:26:42.206Z,21.80
2017-09-20T18:29:09.815Z,30.77
2017-09-20T18:31:37.435Z,30.63
2017-09-20T18:34:05.063Z,25.23
2017-09-20T18:36:32.702Z,26.33
2017-09-20T18:39:00.385Z,23.37
2017-09-20T18:41:27.986Z,30.97
2017-09-20T18:43:56.521Z,23.83
2017-09-20T18:46:24.117Z,24.37
2017-09-20T18:48:52.057Z,21.90
2017-09-20T18:51:19.773Z,23.40
2017-09-20T18:53:47.415Z,22.83
2017-09-20T18:56:15.045Z,24.50
2017-09-20T18:58:43.559Z,25.33
2017-09-20T19:01:11.189Z,22.87
2017-09-20T19:03:38.790Z,23.63
2017-09-20T19:06:06.543Z,27.17
2017-09-20T19:08:34.934Z,25.90
2017-09-20T19:11:02.532Z,27.93
2017-09-20T19:13:30.142Z,25.73
2017-09-20T19:15:57.801Z,26.23
2017-09-20T19:18:25.437Z,25.57
2017-09-20T19:20:53.077Z,22.90
2017-09-20T19:23:20.708Z,25.30
2017-09-20T19:25:49.094Z,25.60
2017-09-20T19:28:16.737Z,30.90
2017-09-20T19:30:44.406Z,26.13
2017-09-20T19:33:12.060Z,25.13
2017-09-20T19:35:39.743Z,26.50
2017-09-20T19:38:07.459Z,26.77
2017-09-20T19:40:35.139Z,26.67
2017-09-20T19:43:02.737Z,30.87
2017-09-20T19:45:30.379Z,29.83
2017-09-20T19:47:58.027Z,29.47
2017-09-20T19:50:25.678Z,29.02
2017-09-20T19:52:54.194Z,28.98
2017-09-20T19:55:21.798Z,29.63
2017-09-20T19:57:50.184Z,27.60
2017-09-20T20:00:17.780Z,29.10
2017-09-20T20:02:46.208Z,29.75
2017-09-20T20:05:14.591Z,29.70
2017-09-20T20:07:42.932Z,29.92
2017-09-20T20:10:10.561Z,32.25
2017-09-20T20:12:38.423Z,30.73
2017-09-20T20:15:06.071Z,31.52
2017-09-20T20:17:34.404Z,29.77
2017-09-20T20:20:02.610Z,29.65
2017-09-20T20:22:30.998Z,30.75
2017-09-20T20:24:59.407Z,28.25
2017-09-20T20:27:27.024Z,29.20
2017-09-20T20:29:55.390Z,30.55
2017-09-20T20:32:22.995Z,30.20
2017-09-20T20:34:50.701Z,30.05
2017-09-20T20:37:18.298Z,30.45
2017-09-20T20:39:45.897Z,31.27
2017-09-20T20:42:13.515Z,32.03
2017-09-20T20:44:41.850Z,30.45
2017-09-20T20:47:09.529Z,31.10
2017-09-20T20:49:37.136Z,30.62
2017-09-20T20:52:04.757Z,32.10
2017-09-20T20:54:32.348Z,31.12
2017-09-20T20:57:00.724Z,33.50
2017-09-20T20:59:29.123Z,30.92
2017-09-20T21:01:56.753Z,32.38
2017-09-20T21:04:24.974Z,30.92
2017-09-20T21:06:52.576Z,30.52
2017-09-20T21:09:20.190Z,32.60
2017-09-20T21:11:47.836Z,31.00
2017-09-20T21:14:15.428Z,31.10
2017-09-20T21:16:43.049Z,32.13
2017-09-20T21:19:10.644Z,32.05
2017-09-20T21:21:38.239Z,33.40
2017-09-20T21:24:05.855Z,30.73
2017-09-20T21:26:33.455Z,31.60
2017-09-20T21:29:01.103Z,31.35
2017-09-20T21:31:28.722Z,32.22
2017-09-20T21:33:56.338Z,35.00
2017-09-20T21:36:23.953Z,32.80
2017-09-20T21:38:52.421Z,31.35
2017-09-20T21:41:20.056Z,36.40
2017-09-20T21:43:48.505Z,34.78
2017-09-20T21:46:16.157Z,33.38
2017-09-20T21:48:43.780Z,34.53
2017-09-20T21:51:11.396Z,36.28
2017-09-20T21:53:39.003Z,36.45
2017-09-20T21:56:06.599Z,41.00
2017-09-20T21:58:34.194Z,35.43
2017-09-20T22:01:02.710Z,34.17
2017-09-20T22:03:30.315Z,35.30
2017-09-20T22:05:58.237Z,36.35
2017-09-20T22:08:26.760Z,33.30
2017-09-20T22:10:55.445Z,33.75
2017-09-20T22:13:23.096Z,35.03
2017-09-20T22:16:02.339Z,34.72
2017-09-20T22:18:41.789Z,37.67
2017-09-20T22:21:21.088Z,34.58
2017-09-20T22:24:00.573Z,35.28
2017-09-20T22:26:39.937Z,35.25
2017-09-20T22:29:08.328Z,32.45
2017-09-20T22:31:35.936Z,35.80
2017-09-20T22:34:03.595Z,34.05
2017-09-20T22:36:31.201Z,32.67
2017-09-20T22:38:59.596Z,36.25
2017-09-20T22:41:27.217Z,30.55
2017-09-20T22:43:54.826Z,33.53
2017-09-20T22:46:22.455Z,33.20
2017-09-20T22:48:50.814Z,34.22
2017-09-20T22:51:18.404Z,38.03
2017-09-20T22:53:47.617Z,35.00
2017-09-20T22:56:15.226Z,33.10
2017-09-20T22:58:42.867Z,32.70
2017-09-20T23:01:10.472Z,30.80
2017-09-20T23:03:38.835Z,32.50
2017-09-20T23:06:06.442Z,30.50
2017-09-20T23:08:34.026Z,29.90
2017-09-20T23:11:01.687Z,28.83
2017-09-20T23:13:29.346Z,31.02
2017-09-20T23:15:57.013Z,31.35
2017-09-20T23:18:24.632Z,29.77
2017-09-20T23:20:53.118Z,30.42
2017-09-20T23:23:20.738Z,30.17
2017-09-20T23:25:48.339Z,31.50
2017-09-20T23:28:15.956Z,30.25
2017-09-20T23:30:43.543Z,30.75
2017-09-20T23:33:11.154Z,31.40
2017-09-20T23:35:38.759Z,32.35
2017-09-20T23:38:06.393Z,31.55
2017-09-20T23:40:33.966Z,29.40
2017-09-20T23:43:02.401Z,30.85
2017-09-20T23:45:30.015Z,29.95
2017-09-20T23:47:58.409Z,31.62
2017-09-20T23:50:26.810Z,31.05
2017-09-20T23:52:55.273Z,30.10
2017-09-20T23:55:22.855Z,29.90
2017-09-20T23:57:50.445Z,32.38
